Time;durP1;ratioP1;P1;durP2;ratioP2;P2;SDS_P1;SDS_P2;PMS_P1;PMS_P2;Temp;Humidity;BMP_temperature;BMP_pressure;BME280_temperature;BME280_humidity;BME280_pressure;Samples;Min_cycle;Max_cycle;Signal;HPM_P1;HPM_P2
2022/10/02 00:00:04;;;;;;;1999.90;999.90;;;;;;;15.18;100.00;94697.81;5075546;28;20606;-68
2022/10/02 00:02:44;;;;;;;1999.90;999.90;;;;;;;15.13;100.00;94695.22;5076769;28;20483;-67
2022/10/02 00:05:15;;;;;;;1999.90;999.90;;;;;;;15.07;100.00;94703.06;5056411;28;20143;-67
2022/10/02 00:07:47;;;;;;;1999.90;999.90;;;;;;;15.05;100.00;94694.69;5078954;28;20063;-68
2022/10/02 00:10:21;;;;;;;1999.90;999.90;;;;;;;14.99;100.00;94695.72;5076477;28;20040;-68
2022/10/02 00:12:53;;;;;;;1999.90;999.90;;;;;;;14.94;100.00;94690.47;5075603;28;20133;-67
2022/10/02 00:15:27;;;;;;;1999.90;999.90;;;;;;;14.91;100.00;94683.91;5074356;28;20051;-67
2022/10/02 00:17:56;;;;;;;;;;;;;;;14.94;100.00;94702.78;5077026;28;20079;-67
2022/10/02 00:20:32;;;;;;;1999.90;999.90;;;;;;;14.85;100.00;94694.66;5075438;28;19924;-67
2022/10/02 00:23:25;;;;;;;1999.90;999.90;;;;;;;14.86;100.00;94698.88;5077636;28;20044;-67
2022/10/02 00:26:00;;;;;;;1999.90;999.90;;;;;;;14.79;100.00;94691.25;5073283;28;20044;-68
2022/10/02 00:28:35;;;;;;;1999.90;999.90;;;;;;;14.81;100.00;94701.47;5076725;28;20044;-67
2022/10/02 00:31:14;;;;;;;1999.90;999.90;;;;;;;14.85;100.00;94705.13;5057264;28;20067;-67
2022/10/02 00:34:03;;;;;;;1999.90;999.90;;;;;;;14.79;100.00;94706.19;5077753;28;20082;-67
2022/10/02 00:45:20;;;;;;;1999.90;999.90;;;;;;;14.32;100.00;94671.97;5028486;28;20647;-73
2022/10/02 00:48:11;;;;;;;1999.90;999.90;;;;;;;14.59;100.00;94706.94;5035852;28;20068;-75
2022/10/02 00:57:10;;;;;;;1999.90;999.90;;;;;;;14.47;100.00;94717.63;5087855;27;20634;-75
2022/10/02 00:59:50;;;;;;;1999.90;999.90;;;;;;;14.51;100.00;94722.09;5086003;28;20101;-75
2022/10/02 01:02:30;;;;;;;1999.90;999.90;;;;;;;14.54;100.00;94710.28;5099606;28;20152;-74
2022/10/02 06:58:14;;;;;;;1999.90;999.90;;;;;;;14.81;100.00;95149.81;5783596;22;10160591;-69
2022/10/02 07:01:13;;;;;;;1999.90;999.90;;;;;;;14.92;100.00;95146.22;6260379;22;20066;-69
2022/10/02 07:03:55;;;;;;;1999.90;999.90;;;;;;;15.07;100.00;95143.75;6259137;22;20051;-69
2022/10/02 07:06:37;;;;;;;1999.90;999.90;;;;;;;15.30;100.00;95165.41;6263096;22;20646;-69
2022/10/02 07:09:34;;;;;;;1999.90;999.90;;;;;;;15.47;100.00;95163.41;6261165;22;20016;-69
2022/10/02 07:12:42;;;;;;;1999.90;999.90;;;;;;;15.85;100.00;95169.44;6260676;22;20445;-69
2022/10/02 07:15:27;;;;;;;1999.90;999.90;;;;;;;15.99;100.00;95179.47;6261852;22;20011;-69
2022/10/02 07:18:18;;;;;;;1999.90;999.90;;;;;;;16.08;100.00;95183.22;6233468;22;20065;-69
2022/10/02 07:24:57;;;;;;;1999.90;999.90;;;;;;;15.73;100.00;95181.16;6259358;22;20039;-66
2022/10/02 07:33:07;;;;;;;1999.90;999.90;;;;;;;15.75;100.00;95179.88;6260430;22;20580;-69
2022/10/02 07:35:52;;;;;;;1999.90;999.90;;;;;;;15.82;100.00;95190.16;6105001;23;20026;-68
2022/10/02 07:38:41;;;;;;;1999.90;999.90;;;;;;;15.91;100.00;95178.13;6252071;22;20019;-69
2022/10/02 07:41:26;;;;;;;1999.90;999.90;;;;;;;16.03;100.00;95175.31;6259718;22;20092;-69
2022/10/02 07:44:34;;;;;;;1999.90;999.90;;;;;;;16.06;100.00;95190.53;6236367;22;20030;-69
2022/10/02 07:48:05;;;;;;;1999.90;999.90;;;;;;;16.12;100.00;95194.78;6260437;22;20092;-68
2022/10/02 07:51:45;;;;;;;1999.90;999.90;;;;;;;16.15;100.00;95194.28;6260703;22;20030;-69
2022/10/02 07:54:15;;;;;;;1999.90;999.90;;;;;;;16.21;100.00;95192.44;6264822;22;20616;-70
2022/10/02 07:56:44;;;;;;;1999.90;999.90;;;;;;;16.23;100.00;95180.63;6260883;22;20030;-70
2022/10/02 07:59:14;;;;;;;1999.90;999.90;;;;;;;16.24;100.00;95179.59;6262868;22;20015;-67
2022/10/02 08:01:44;;;;;;;1999.90;999.90;;;;;;;16.22;100.00;95176.44;6260213;22;20809;-70
2022/10/02 08:04:23;;;;;;;1999.90;999.90;;;;;;;16.32;100.00;95198.53;6235299;22;20020;-69
2022/10/02 08:06:56;;;;;;;1999.90;999.90;;;;;;;16.47;100.00;95201.19;6260302;22;20690;-68
2022/10/02 08:09:46;;;;;;;1999.90;999.90;;;;;;;16.45;100.00;95187.53;6262479;22;20020;-69
2022/10/02 08:12:26;;;;;;;1999.90;999.90;;;;;;;16.44;100.00;95192.00;6260351;22;20603;-69
2022/10/02 08:14:55;;;;;;;1999.90;999.90;;;;;;;16.54;100.00;95183.34;6262070;22;20027;-70
2022/10/02 08:18:12;;;;;;;1999.90;999.90;;;;;;;16.67;100.00;95207.56;6261183;22;20532;-69
2022/10/02 08:21:00;;;;;;;1999.90;999.90;;;;;;;16.85;100.00;95193.16;6263112;22;20035;-69
2022/10/02 08:23:42;;;;;;;1999.90;999.90;;;;;;;17.03;100.00;95212.91;6259072;22;20031;-70
2022/10/02 08:26:24;;;;;;;1999.90;999.90;;;;;;;16.98;100.00;95200.56;6262999;22;20023;-71
2022/10/02 08:29:04;;;;;;;1999.90;999.90;;;;;;;16.84;100.00;95202.91;6233038;22;20016;-69
2022/10/02 08:31:34;;;;;;;1999.90;999.90;;;;;;;16.76;100.00;95203.38;6260724;22;20093;-69
2022/10/02 08:34:15;;;;;;;1999.90;999.90;;;;;;;16.79;100.00;95197.59;6259257;22;20614;-69
2022/10/02 08:37:12;;;;;;;1999.90;999.90;;;;;;;16.80;100.00;95214.97;6261422;22;20077;-69
2022/10/02 08:39:50;;;;;;;1999.90;999.90;;;;;;;16.79;100.00;95187.84;6259010;22;20023;-70
2022/10/02 08:42:44;;;;;;;1999.90;999.90;;;;;;;16.91;100.00;95195.53;6232191;22;20023;-70
2022/10/02 08:45:47;;;;;;;1999.90;999.90;;;;;;;16.84;100.00;95187.13;6228421;22;20106;-69
2022/10/02 08:49:05;;;;;;;1999.90;999.90;;;;;;;16.59;100.00;95145.75;6256803;22;20023;-69
2022/10/02 08:52:10;;;;;;;1999.90;999.90;;;;;;;17.01;100.00;95189.50;6235166;22;20471;-70
2022/10/02 08:54:37;;;;;;;1999.90;999.90;;;;;;;17.07;100.00;95198.19;6233276;22;20054;-69
2022/10/02 08:57:14;;;;;;;1999.90;999.90;;;;;;;16.97;100.00;95189.22;6258752;22;20016;-69
2022/10/02 09:00:16;;;;;;;1999.90;999.90;;;;;;;17.15;100.00;95189.78;6232532;22;20022;-70
2022/10/02 09:02:46;;;;;;;1999.90;999.90;;;;;;;17.23;100.00;95202.38;6194457;22;20051;-69
2022/10/02 09:05:33;;;;;;;1999.90;999.90;;;;;;;17.23;100.00;95207.66;6259541;22;20089;-69
2022/10/02 09:08:34;;;;;;;1999.90;999.90;;;;;;;17.38;100.00;95205.03;6260414;22;20425;-70
2022/10/02 09:11:15;;;;;;;1999.90;999.90;;;;;;;17.34;100.00;95193.44;6257431;22;20565;-69
2022/10/02 09:14:09;;;;;;;1999.90;999.90;;;;;;;17.42;96.57;95215.03;6233840;22;20020;-70
2022/10/02 09:17:14;;;;;;;;;;;;;;;17.54;89.84;95199.75;6260808;22;20674;-69
2022/10/02 09:19:53;;;;;;;;;;;;;;;17.71;84.49;95218.69;6112589;23;19923;-69
2022/10/02 09:22:35;;;;;;;1999.90;999.90;;;;;;;17.75;83.57;95219.75;6136820;23;19927;-69
2022/10/02 09:25:21;;;;;;;1999.90;999.90;;;;;;;17.82;84.29;95202.84;6218026;22;20586;-70
2022/10/02 09:28:09;;;;;;;1999.90;999.90;;;;;;;18.09;85.53;95213.88;6259544;22;20025;-70
2022/10/02 09:31:02;;;;;;;1999.90;999.90;;;;;;;18.64;89.43;95197.31;6263203;22;20023;-71
2022/10/02 09:36:28;;;;;;;1999.90;999.90;;;;;;;24.82;100.00;95237.72;5074693;27;20628;-67
2022/10/02 09:39:18;;;;;;;1999.90;999.90;;;;;;;26.12;nan;95247.47;5055306;28;20102;-50
2022/10/02 09:42:00;;;;;;;1999.90;999.90;;;;;;;24.48;nan;95239.19;5057926;28;20053;-52
2022/10/02 09:44:47;;;;;;;1999.90;999.90;;;;;;;24.12;nan;95237.50;5056428;28;20049;-52
2022/10/02 09:47:21;;;;;;;1999.90;999.90;;;;;;;23.96;nan;95236.31;5053506;28;20044;-49
2022/10/02 09:52:46;;;;;;;1999.90;999.90;;;;;;;25.49;81.59;95246.38;5077493;27;20627;-61
2022/10/02 09:55:48;;;;;;;1999.90;999.90;;;;;;;25.79;100.00;95233.13;5076405;28;20135;-56
2022/10/02 09:58:47;;;;;;;1999.90;999.90;;;;;;;26.95;73.37;95249.91;5072907;28;20172;-58
2022/10/02 10:01:31;;;;;;;1999.90;999.90;;;;;;;26.76;74.77;95247.66;5069307;28;20036;-56
2022/10/02 10:04:20;;;;;;;1999.90;999.90;;;;;;;25.59;74.27;95259.38;5074267;28;20048;-62
2022/10/02 10:07:10;;;;;;;1999.90;999.90;;;;;;;25.12;81.20;95224.53;5075406;28;20048;-66
2022/10/02 10:10:00;;;;;;;;;;;;;;;24.76;76.29;95260.28;5074675;28;20040;-52
2022/10/02 10:12:36;;;;;;;;;;;;;;;24.33;77.45;95250.25;5081920;28;19920;-51
2022/10/02 10:15:21;;;;;;;;;;;;;;;24.12;78.58;95242.03;5079299;28;20448;-47
2022/10/02 10:18:08;;;;;;;;;;;;;;;23.91;78.98;95247.88;5075058;28;19925;-47
2022/10/02 10:20:45;;;;;;;;;;;;;;;23.79;78.73;95239.66;5074662;28;19928;-47
2022/10/02 10:23:30;;;;;;;;;;;;;;;25.35;71.39;95243.84;5072858;28;19924;-47
2022/10/02 10:26:16;;;;;;;;;;;;;;;23.34;68.45;95245.78;5079037;28;20009;-44
2022/10/02 10:29:03;;;;;;;;;;;;;;;22.90;68.96;95239.31;5077258;28;20383;-45
2022/10/02 10:31:45;;;;;;;;;;;;;;;22.86;69.48;95241.78;5070947;28;20017;-45
2022/10/02 10:35:01;;;;;;;1999.90;999.90;;;;;;;24.56;67.57;95241.13;5070892;28;20788;-64
2022/10/02 10:41:04;;;;;;;1999.90;999.90;;;;;;;24.01;61.17;95238.84;5074700;28;20122;-56
2022/10/02 10:44:05;;;;;;;1999.90;999.90;;;;;;;23.89;67.11;95239.41;5072687;28;20044;-57
2022/10/02 10:46:45;;;;;;;1999.90;999.90;;;;;;;23.63;67.48;95231.28;5070356;28;20040;-58
2022/10/02 10:49:37;;;;;;;1999.90;999.90;;;;;;;23.47;68.09;95229.00;5071281;28;20456;-58
2022/10/02 10:52:06;;;;;;;1999.90;999.90;;;;;;;23.43;68.42;95233.34;5074118;28;20081;-57
2022/10/02 10:54:53;;;;;;;1999.90;999.90;;;;;;;23.40;68.89;95227.84;5075352;28;20050;-57
2022/10/02 10:57:43;;;;;;;1999.90;999.90;;;;;;;23.38;68.99;95224.72;5071823;28;20052;-57
2022/10/02 11:00:24;;;;;;;1999.90;999.90;;;;;;;23.36;69.22;95225.00;5069420;28;20105;-57
2022/10/02 11:03:03;;;;;;;1999.90;999.90;;;;;;;23.37;69.49;95229.25;5064846;28;20040;-58
2022/10/02 11:05:48;;;;;;;1999.90;999.90;;;;;;;23.33;69.61;95222.94;5060529;28;20320;-57
2022/10/02 11:09:03;;;;;;;1999.90;999.90;;;;;;;23.37;69.49;95229.25;5060469;28;20216;-58
2022/10/02 11:12:21;;;;;;;1999.90;999.90;;;;;;;23.33;69.54;95217.63;5052887;28;20079;-57
2022/10/02 11:14:54;;;;;;;1999.90;999.90;;;;;;;23.33;69.53;95222.94;5052318;28;20068;-58
2022/10/02 11:17:49;;;;;;;1999.90;999.90;;;;;;;23.36;70.19;95217.03;5060763;28;20516;-58
2022/10/02 11:20:35;;;;;;;1999.90;999.90;;;;;;;23.31;70.69;95203.88;5057387;28;20127;-58
2022/10/02 11:23:29;;;;;;;1999.90;999.90;;;;;;;24.17;68.66;95202.75;5058737;28;20044;-57
2022/10/02 11:26:14;;;;;;;1999.90;999.90;;;;;;;23.89;68.84;95201.41;5063173;28;20469;-52
2022/10/02 11:29:15;;;;;;;1999.90;999.90;;;;;;;23.52;71.70;95193.53;5060699;28;20036;-54
2022/10/02 11:32:13;;;;;;;1999.90;999.90;;;;;;;23.49;72.27;95210.09;5058644;28;20135;-56
2022/10/02 11:34:42;;;;;;;1999.90;999.90;;;;;;;23.43;73.80;95196.13;5063175;28;20131;-58
2022/10/02 11:37:51;;;;;;;1999.90;999.90;;;;;;;23.53;74.48;95197.75;5061477;28;20135;-58
2022/10/02 11:40:30;;;;;;;1999.90;999.90;;;;;;;23.72;76.70;95197.53;5057755;28;20059;-55
2022/10/02 11:43:21;;;;;;;1999.90;999.90;;;;;;;23.81;80.54;95200.28;5063433;28;20045;-53
2022/10/02 11:46:07;;;;;;;1999.90;999.90;;;;;;;23.81;79.08;95206.38;5059493;28;20095;-57
2022/10/02 11:48:46;;;;;;;1999.90;999.90;;;;;;;23.84;83.01;95189.81;5058688;28;20098;-57
2022/10/02 11:51:31;;;;;;;1999.90;999.90;;;;;;;23.81;82.51;95200.28;5062560;28;20619;-55
2022/10/02 11:54:10;;;;;;;1999.90;999.90;;;;;;;23.93;85.56;95187.19;5059651;28;20106;-58
2022/10/02 11:57:20;;;;;;;1999.90;999.90;;;;;;;24.04;83.42;95193.03;5059697;28;20473;-57
2022/10/02 12:00:14;;;;;;;1999.90;999.90;;;;;;;24.09;82.40;95194.75;5056155;28;20055;-56
2022/10/02 12:02:57;;;;;;;1999.90;999.90;;;;;;;24.11;82.71;95196.03;5060928;28;20525;-55
